Decoded Metar for LTBF (BALIKESIR in TURKEY) (IATA:BZI) | Meteo·Mobile Aviation Weather
aviador You're here:

LTBF Decoded Metar

BALIKESIR in TURKEY
Report Time2019-02-20 00:50:00
UTC Time2019-02-20 01:29:49
Flight Rules ifr IFR
WindCalm
Visibility3600 m
Phenomena:Mist
Clouds:N/A
CeilingNone
Temp00°C (ISA -14)
Dew Point00°C (100% RH)
AAT-2.0°C
QNH1021 hPa
Density Alt-1,604 ft
Elevation335 ft
Report Wrong Elevation
Raw Report
METAR LTBF 200050Z 00000KT 3600 BR NSC 00/M00 Q1021 NOSIG RMK RWY18
00000KT=

Extra information for LTBF:More info

Metar Taf Metar & Taf Last 4 Metars F.Rules Stats Wind Profile Meteogram Temp Stats Airport Information Weather charts Add Link Nearby VenuesMetar ALERT Operation Metar Decoded Social comments